Time;durP1;ratioP1;P1;durP2;ratioP2;P2;SDS_P1;SDS_P2;PMS_P1;PMS_P2;Temp;Humidity;BMP_temperature;BMP_pressure;BME280_temperature;BME280_humidity;BME280_pressure;Samples;Min_cycle;Max_cycle;Signal;HPM_P1;HPM_P2
2022/12/20 00:01:22;;;;;;;;;;;15.40;53.30;;;;;;5069846;28;19908;-89
2022/12/20 00:03:48;;;;;;;;;;;15.40;53.30;;;;;;5069437;28;20150;-89
2022/12/20 00:06:14;;;;;;;;;;;15.40;53.40;;;;;;5070378;28;20211;-89
2022/12/20 00:08:40;;;;;;;;;;;15.40;53.40;;;;;;5070270;28;20286;-88
2022/12/20 00:11:06;;;;;;;;;;;15.40;53.50;;;;;;5069596;28;20167;-88
2022/12/20 00:13:32;;;;;;;;;;;15.40;53.50;;;;;;5070214;28;20065;-89
2022/12/20 00:16:08;;;;;;;;;;;15.30;53.50;;;;;;5070613;28;20015;-88
2022/12/20 00:18:34;;;;;;;;;;;15.30;53.60;;;;;;5073280;28;19920;-89
2022/12/20 00:21:00;;;;;;;;;;;15.30;53.70;;;;;;5072700;28;19962;-88
2022/12/20 00:23:26;;;;;;;;;;;15.30;53.70;;;;;;5073176;28;19916;-88
2022/12/20 00:25:52;;;;;;;;;;;15.30;53.80;;;;;;5071718;28;19916;-88
2022/12/20 00:28:17;;;;;;;;;;;15.30;53.80;;;;;;5072253;28;19917;-88
2022/12/20 00:30:43;;;;;;;;;;;15.30;53.90;;;;;;5071221;28;19983;-88
2022/12/20 00:33:09;;;;;;;;;;;15.20;53.90;;;;;;5071251;28;19909;-89
2022/12/20 00:35:34;;;;;;;;;;;15.20;53.90;;;;;;5072937;28;19908;-88
2022/12/20 00:38:00;;;;;;;;;;;15.20;53.90;;;;;;5073563;28;20320;-89
2022/12/20 00:40:25;;;;;;;;;;;15.20;54.00;;;;;;5075121;28;19909;-88
2022/12/20 00:42:51;;;;;;;;;;;15.20;54.20;;;;;;5072933;28;19908;-88
2022/12/20 00:45:17;;;;;;;;;;;15.20;54.20;;;;;;5074489;28;19909;-88
2022/12/20 00:47:42;;;;;;;;;;;15.20;54.20;;;;;;5074586;28;19909;-88
2022/12/20 00:50:08;;;;;;;;;;;15.20;54.20;;;;;;5072561;28;20258;-88
2022/12/20 00:52:33;;;;;;;;;;;15.20;54.20;;;;;;5072734;28;19909;-88
2022/12/20 00:54:59;;;;;;;;;;;15.10;54.20;;;;;;5073863;28;20305;-88
2022/12/20 00:57:25;;;;;;;;;;;15.10;54.30;;;;;;5074378;28;20017;-88
2022/12/20 00:59:50;;;;;;;;;;;15.10;54.30;;;;;;5074273;28;20270;-88
2022/12/20 01:02:16;;;;;;;;;;;15.10;54.30;;;;;;5075976;28;19909;-88
2022/12/20 01:04:42;;;;;;;;;;;15.10;54.30;;;;;;5075459;28;19909;-88
2022/12/20 01:07:07;;;;;;;;;;;15.10;54.30;;;;;;5072995;28;19909;-88
2022/12/20 01:09:33;;;;;;;;;;;15.10;54.40;;;;;;5075036;28;19912;-88
2022/12/20 01:11:58;;;;;;;;;;;15.10;54.40;;;;;;5074080;28;19908;-88
2022/12/20 01:14:24;;;;;;;;;;;15.10;54.40;;;;;;5074319;28;19946;-87
2022/12/20 01:16:50;;;;;;;;;;;15.10;54.40;;;;;;5074288;28;19981;-89
2022/12/20 01:19:16;;;;;;;;;;;15.10;54.40;;;;;;5074847;28;19912;-88
2022/12/20 01:21:45;;;;;;;;;;;15.00;54.50;;;;;;5073738;28;19909;-88
2022/12/20 01:24:14;;;;;;;;;;;15.10;54.60;;;;;;5074000;28;20255;-88
2022/12/20 01:26:40;;;;;;;;;;;15.00;54.50;;;;;;5072373;28;19923;-88
2022/12/20 01:29:06;;;;;;;;;;;15.00;54.50;;;;;;5075004;28;20088;-89
2022/12/20 01:31:32;;;;;;;;;;;15.00;54.60;;;;;;5077268;28;19912;-88
2022/12/20 01:33:58;;;;;;;;;;;15.00;54.70;;;;;;5077393;28;19978;-88
2022/12/20 01:36:26;;;;;;;;;;;15.00;54.70;;;;;;5076129;28;20170;-88
2022/12/20 01:38:58;;;;;;;;;;;15.00;54.90;;;;;;5074961;28;20206;-88
2022/12/20 01:41:25;;;;;;;;;;;15.00;54.90;;;;;;5076924;28;19931;-89
2022/12/20 01:43:52;;;;;;;;;;;15.00;54.90;;;;;;5076708;28;19908;-88
2022/12/20 01:46:19;;;;;;;;;;;14.90;54.90;;;;;;5076951;28;20129;-88
2022/12/20 01:48:48;;;;;;;;;;;14.90;55.00;;;;;;5077791;28;20230;-89
2022/12/20 01:51:14;;;;;;;;;;;14.90;55.20;;;;;;5078884;28;19931;-88
2022/12/20 01:53:40;;;;;;;;;;;14.90;55.20;;;;;;5077625;28;19917;-88
2022/12/20 01:56:06;;;;;;;;;;;14.90;55.30;;;;;;5078619;28;19916;-88
2022/12/20 01:58:32;;;;;;;;;;;14.90;55.40;;;;;;5076267;28;19946;-88
2022/12/20 02:00:58;;;;;;;;;;;14.90;55.40;;;;;;5076510;28;19913;-88
2022/12/20 02:03:24;;;;;;;;;;;14.90;55.50;;;;;;5076295;28;19916;-88
2022/12/20 02:05:49;;;;;;;;;;;14.80;55.50;;;;;;5077186;28;19920;-89
2022/12/20 02:08:17;;;;;;;;;;;14.90;55.60;;;;;;5075595;28;20302;-89
2022/12/20 02:10:45;;;;;;;;;;;14.80;55.60;;;;;;5074915;28;19909;-89
2022/12/20 02:13:15;;;;;;;;;;;14.80;55.60;;;;;;5076576;28;20023;-88
2022/12/20 02:15:48;;;;;;;;;;;14.80;55.70;;;;;;5077726;28;19966;-89
2022/12/20 02:18:29;;;;;;;;;;;14.80;55.90;;;;;;5077115;28;19912;-89
2022/12/20 02:21:07;;;;;;;;;;;14.80;55.90;;;;;;5077229;28;19912;-88
2022/12/20 02:23:51;;;;;;;;;;;14.80;56.00;;;;;;5076886;28;19908;-88
2022/12/20 02:26:23;;;;;;;;;;;14.80;56.00;;;;;;5076278;28;19916;-89
2022/12/20 02:29:07;;;;;;;;;;;14.70;56.10;;;;;;5077542;28;19919;-89
2022/12/20 02:31:38;;;;;;;;;;;14.80;56.40;;;;;;5073971;28;19908;-88
2022/12/20 02:34:04;;;;;;;;;;;14.80;56.50;;;;;;5075484;28;20003;-88
2022/12/20 02:36:30;;;;;;;;;;;14.70;56.50;;;;;;5076141;28;19909;-88
2022/12/20 02:38:55;;;;;;;;;;;14.70;56.50;;;;;;5075005;28;19912;-89
2022/12/20 02:41:34;;;;;;;;;;;14.70;56.50;;;;;;5076182;28;19947;-88
2022/12/20 02:47:04;;;;;;;;;;;14.70;56.70;;;;;;5077600;28;19947;-88
2022/12/20 02:49:33;;;;;;;;;;;14.70;56.80;;;;;;5077738;28;19919;-88
2022/12/20 02:52:00;;;;;;;;;;;14.70;56.90;;;;;;5077738;28;19909;-88
2022/12/20 02:54:26;;;;;;;;;;;14.70;57.00;;;;;;5078465;28;19917;-88
2022/12/20 02:56:54;;;;;;;;;;;14.60;57.00;;;;;;5076553;28;20193;-88
2022/12/20 02:59:22;;;;;;;;;;;14.60;57.00;;;;;;5075318;28;19966;-88
2022/12/20 03:01:52;;;;;;;;;;;14.60;57.10;;;;;;5075533;28;19931;-89
2022/12/20 03:04:20;;;;;;;;;;;14.60;57.10;;;;;;5075182;28;20274;-88
2022/12/20 03:06:56;;;;;;;;;;;14.60;57.20;;;;;;5075931;28;19950;-89
2022/12/20 03:09:22;;;;;;;;;;;14.60;57.30;;;;;;5076953;28;19917;-88
2022/12/20 03:11:47;;;;;;;;;;;14.50;57.40;;;;;;5076009;28;19931;-88
2022/12/20 03:14:13;;;;;;;;;;;14.50;57.60;;;;;;5075644;28;19924;-89
2022/12/20 03:16:38;;;;;;;;;;;14.50;57.60;;;;;;5075929;28;19958;-88
2022/12/20 03:19:04;;;;;;;;;;;14.50;57.60;;;;;;5075610;28;19977;-89
2022/12/20 03:21:30;;;;;;;;;;;14.50;57.70;;;;;;5075901;28;20086;-88
2022/12/20 03:23:55;;;;;;;;;;;14.50;57.70;;;;;;5075520;28;19922;-88
2022/12/20 03:26:21;;;;;;;;;;;14.50;57.70;;;;;;5075981;28;19916;-88
2022/12/20 03:28:47;;;;;;;;;;;14.50;57.80;;;;;;5076225;28;20002;-88
2022/12/20 03:31:12;;;;;;;;;;;14.50;57.90;;;;;;5076021;28;19916;-88
2022/12/20 03:33:38;;;;;;;;;;;14.50;57.90;;;;;;5075481;28;19905;-88
2022/12/20 03:36:03;;;;;;;;;;;14.50;58.00;;;;;;5075630;28;20095;-88
2022/12/20 03:38:29;;;;;;;;;;;14.40;58.00;;;;;;5075278;28;20001;-89
2022/12/20 03:40:55;;;;;;;;;;;14.50;58.20;;;;;;5076834;28;19970;-88
2022/12/20 03:43:20;;;;;;;;;;;14.40;58.30;;;;;;5076434;28;19908;-88
2022/12/20 03:45:46;;;;;;;;;;;14.40;58.40;;;;;;5075248;28;19912;-88
2022/12/20 03:48:11;;;;;;;;;;;14.40;58.50;;;;;;5072879;28;19908;-89
2022/12/20 03:50:37;;;;;;;;;;;14.40;58.60;;;;;;5072719;28;19935;-88
2022/12/20 03:53:02;;;;;;;;;;;14.40;58.60;;;;;;5073724;28;19919;-88
2022/12/20 03:55:28;;;;;;;;;;;14.40;58.70;;;;;;5073724;28;19909;-89
2022/12/20 03:57:54;;;;;;;;;;;14.40;58.70;;;;;;5074251;28;19978;-88
2022/12/20 04:00:20;;;;;;;;;;;14.40;58.70;;;;;;5073787;28;19908;-89
2022/12/20 04:02:45;;;;;;;;;;;14.40;58.80;;;;;;5075065;28;19995;-89
2022/12/20 04:05:11;;;;;;;;;;;14.40;58.80;;;;;;5074661;28;19908;-88
2022/12/20 04:07:37;;;;;;;;;;;14.40;58.90;;;;;;5074270;28;19912;-88
2022/12/20 04:10:03;;;;;;;;;;;14.70;58.90;;;;;;5073825;28;20191;-88
2022/12/20 04:12:28;;;;;;;;;;;15.70;56.50;;;;;;5074201;28;20334;-89
2022/12/20 04:14:54;;;;;;;;;;;16.50;54.80;;;;;;5075118;28;20349;-88
2022/12/20 04:17:19;;;;;;;;;;;16.80;54.10;;;;;;5074825;28;20229;-88
2022/12/20 04:19:45;;;;;;;;;;;17.00;53.40;;;;;;5075258;28;20271;-89
2022/12/20 04:22:10;;;;;;;;;;;17.20;53.00;;;;;;5076037;28;19958;-88
2022/12/20 04:24:36;;;;;;;;;;;17.50;52.80;;;;;;5074700;28;19966;-89
2022/12/20 04:27:04;;;;;;;;;;;17.60;52.40;;;;;;5074439;28;20303;-89
2022/12/20 04:29:30;;;;;;;;;;;17.70;52.10;;;;;;5075040;28;20313;-89
2022/12/20 04:31:55;;;;;;;;;;;17.80;52.10;;;;;;5073995;28;19981;-89
2022/12/20 04:34:21;;;;;;;;;;;17.80;52.00;;;;;;5072436;28;20142;-88
2022/12/20 04:36:46;;;;;;;;;;;17.80;51.90;;;;;;5071136;28;19962;-90
2022/12/20 04:39:12;;;;;;;;;;;17.90;51.80;;;;;;5073014;28;19923;-89
2022/12/20 04:41:37;;;;;;;;;;;18.00;51.80;;;;;;5075274;28;19975;-89
2022/12/20 04:44:03;;;;;;;;;;;18.10;51.60;;;;;;5074914;28;20253;-89
2022/12/20 04:46:29;;;;;;;;;;;18.20;51.50;;;;;;5075358;28;20273;-89
2022/12/20 04:48:54;;;;;;;;;;;18.30;51.40;;;;;;5074212;28;19912;-89
2022/12/20 04:51:20;;;;;;;;;;;18.30;51.40;;;;;;5073754;28;20190;-90
2022/12/20 04:53:46;;;;;;;;;;;18.40;51.40;;;;;;5072090;28;20247;-90
2022/12/20 04:56:17;;;;;;;;;;;18.40;51.40;;;;;;5069981;28;19919;-90
2022/12/20 04:58:43;;;;;;;;;;;18.30;51.60;;;;;;5073336;28;19923;-91
2022/12/20 05:01:09;;;;;;;;;;;18.30;51.50;;;;;;5072783;28;19912;-90
2022/12/20 05:03:34;;;;;;;;;;;18.20;51.60;;;;;;5072806;28;19931;-92
2022/12/20 05:06:00;;;;;;;;;;;18.20;51.90;;;;;;5072417;28;20185;-92
2022/12/20 05:08:26;;;;;;;;;;;18.00;52.20;;;;;;5070036;28;19951;-91
2022/12/20 05:10:51;;;;;;;;;;;18.00;52.30;;;;;;5071792;28;19955;-92
2022/12/20 05:13:17;;;;;;;;;;;17.80;52.50;;;;;;5072736;28;19959;-92
2022/12/20 05:15:42;;;;;;;;;;;17.70;52.70;;;;;;5072031;28;19909;-92
2022/12/20 05:18:09;;;;;;;;;;;17.60;53.00;;;;;;5072585;28;20311;-92
2022/12/20 05:20:34;;;;;;;;;;;17.50;53.30;;;;;;5073028;28;19909;-92
2022/12/20 05:28:31;;;;;;;;;;;17.20;53.90;;;;;;5071886;28;19972;-91
2022/12/20 05:30:57;;;;;;;;;;;17.10;54.10;;;;;;5070698;28;20460;-91
2022/12/20 05:33:23;;;;;;;;;;;17.00;54.40;;;;;;5070572;28;19920;-90
2022/12/20 05:35:48;;;;;;;;;;;16.90;54.70;;;;;;5070941;28;19930;-91
2022/12/20 05:38:14;;;;;;;;;;;16.80;55.00;;;;;;5071766;28;19986;-90
2022/12/20 05:40:40;;;;;;;;;;;16.80;55.30;;;;;;5072030;28;19909;-91
2022/12/20 05:43:06;;;;;;;;;;;16.70;55.60;;;;;;5070799;28;19915;-90
2022/12/20 05:45:32;;;;;;;;;;;16.60;55.80;;;;;;5069669;28;20278;-90
2022/12/20 05:47:58;;;;;;;;;;;16.50;56.30;;;;;;5069292;28;19912;-90
2022/12/20 05:50:24;;;;;;;;;;;16.40;56.40;;;;;;5071079;28;19912;-90
2022/12/20 05:52:49;;;;;;;;;;;16.30;56.70;;;;;;5070142;28;19973;-90
2022/12/20 05:55:15;;;;;;;;;;;16.20;57.00;;;;;;5067236;28;19917;-90
2022/12/20 05:57:40;;;;;;;;;;;16.20;57.10;;;;;;5069161;28;19913;-90
2022/12/20 06:00:39;;;;;;;;;;;16.20;57.00;;;;;;5066479;28;19969;-89
2022/12/20 06:03:05;;;;;;;;;;;16.20;57.20;;;;;;5066163;28;19996;-92
2022/12/20 06:05:31;;;;;;;;;;;16.30;57.10;;;;;;5066947;28;20010;-90
2022/12/20 06:07:57;;;;;;;;;;;16.40;57.00;;;;;;5065257;28;20231;-90
2022/12/20 06:10:23;;;;;;;;;;;16.50;56.70;;;;;;5066117;28;19978;-90
2022/12/20 06:12:49;;;;;;;;;;;16.60;56.60;;;;;;5067914;28;20007;-90
2022/12/20 06:15:14;;;;;;;;;;;16.80;56.00;;;;;;5072443;28;20015;-90
2022/12/20 06:17:40;;;;;;;;;;;17.00;55.60;;;;;;5072032;28;19916;-90
2022/12/20 06:20:06;;;;;;;;;;;17.30;55.30;;;;;;5074933;28;19935;-89
2022/12/20 06:22:32;;;;;;;;;;;17.50;54.80;;;;;;5090475;28;19956;-90
2022/12/20 06:24:58;;;;;;;;;;;17.60;54.50;;;;;;5067853;28;20111;-90
2022/12/20 06:27:23;;;;;;;;;;;17.80;54.40;;;;;;5068275;28;19939;-89
2022/12/20 06:29:53;;;;;;;;;;;17.80;54.20;;;;;;5067648;28;20007;-90
2022/12/20 06:32:19;;;;;;;;;;;17.90;54.10;;;;;;5069027;28;20222;-90
2022/12/20 06:34:44;;;;;;;;;;;17.90;54.20;;;;;;5069568;28;19999;-90
2022/12/20 06:37:10;;;;;;;;;;;18.00;54.10;;;;;;5068174;28;19908;-90
2022/12/20 06:39:36;;;;;;;;;;;18.00;54.10;;;;;;5067325;28;19977;-90
2022/12/20 06:42:02;;;;;;;;;;;17.90;54.10;;;;;;5068516;28;19908;-90
2022/12/20 06:44:27;;;;;;;;;;;17.90;54.40;;;;;;5068505;28;19909;-89
2022/12/20 06:46:53;;;;;;;;;;;17.80;54.70;;;;;;5066796;28;19935;-90
2022/12/20 06:49:19;;;;;;;;;;;17.70;54.90;;;;;;5065233;28;19922;-90
2022/12/20 06:51:44;;;;;;;;;;;17.70;55.20;;;;;;5064088;28;20240;-90
2022/12/20 06:54:10;;;;;;;;;;;17.60;55.30;;;;;;5064534;28;19909;-89
2022/12/20 06:56:36;;;;;;;;;;;17.50;55.50;;;;;;5063816;28;20177;-90
2022/12/20 06:59:01;;;;;;;;;;;17.50;55.70;;;;;;5063520;28;19912;-90
2022/12/20 07:01:27;;;;;;;;;;;17.40;55.70;;;;;;5063988;28;20016;-90
2022/12/20 07:03:52;;;;;;;;;;;17.30;55.80;;;;;;5068165;28;20015;-89
2022/12/20 07:06:18;;;;;;;;;;;17.20;56.00;;;;;;5067850;28;20136;-90
2022/12/20 07:08:43;;;;;;;;;;;17.10;56.10;;;;;;5066363;28;19973;-89
2022/12/20 07:11:09;;;;;;;;;;;17.00;56.30;;;;;;5067594;28;20001;-90
2022/12/20 07:13:35;;;;;;;;;;;17.00;56.40;;;;;;5064881;28;19908;-89
2022/12/20 07:16:01;;;;;;;;;;;16.90;56.60;;;;;;5065560;28;20268;-89
2022/12/20 07:18:27;;;;;;;;;;;16.90;56.70;;;;;;5067423;28;20034;-89
2022/12/20 07:20:53;;;;;;;;;;;16.80;56.70;;;;;;5068831;28;20018;-89
2022/12/20 07:23:19;;;;;;;;;;;16.70;57.00;;;;;;5065164;28;19916;-90
2022/12/20 07:26:03;;;;;;;;;;;16.70;57.30;;;;;;5065590;28;19912;-89
2022/12/20 07:28:28;;;;;;;;;;;16.60;57.50;;;;;;5067125;28;19908;-90
2022/12/20 07:30:59;;;;;;;;;;;16.60;57.60;;;;;;5068100;28;19909;-90
2022/12/20 07:33:24;;;;;;;;;;;16.50;57.70;;;;;;5067152;28;19908;-89
2022/12/20 07:35:50;;;;;;;;;;;16.50;57.90;;;;;;5065535;28;20224;-89
2022/12/20 07:38:16;;;;;;;;;;;16.50;57.90;;;;;;5067165;28;19923;-89
2022/12/20 07:40:42;;;;;;;;;;;16.40;57.90;;;;;;5069466;28;19931;-89
2022/12/20 07:43:10;;;;;;;;;;;16.40;58.00;;;;;;5068493;28;19909;-89
2022/12/20 07:45:36;;;;;;;;;;;16.40;58.10;;;;;;5069677;28;20170;-91
2022/12/20 07:48:03;;;;;;;;;;;16.40;58.10;;;;;;5068755;28;20016;-89
2022/12/20 07:50:29;;;;;;;;;;;16.40;58.20;;;;;;5068368;28;19946;-89
2022/12/20 07:52:55;;;;;;;;;;;16.40;58.40;;;;;;5067983;28;19908;-89
2022/12/20 07:55:21;;;;;;;;;;;16.30;58.30;;;;;;5065434;28;20241;-90
2022/12/20 07:57:49;;;;;;;;;;;16.30;58.60;;;;;;5064930;28;20259;-90
2022/12/20 08:00:17;;;;;;;;;;;16.30;58.50;;;;;;5066114;28;19947;-89
2022/12/20 08:02:46;;;;;;;;;;;16.30;58.50;;;;;;5066232;28;19909;-90
2022/12/20 08:05:12;;;;;;;;;;;16.30;58.50;;;;;;5066543;28;19915;-89
2022/12/20 08:07:39;;;;;;;;;;;16.20;58.60;;;;;;5065695;28;20003;-89
2022/12/20 08:10:05;;;;;;;;;;;16.20;58.70;;;;;;5067082;28;20155;-89
2022/12/20 08:12:31;;;;;;;;;;;16.10;58.80;;;;;;5068245;28;19908;-89
2022/12/20 08:14:57;;;;;;;;;;;16.10;58.90;;;;;;5066323;28;20102;-89
2022/12/20 08:17:22;;;;;;;;;;;16.10;58.90;;;;;;5064210;28;20360;-89
2022/12/20 08:19:50;;;;;;;;;;;16.20;58.80;;;;;;5065900;28;19917;-89
2022/12/20 08:22:16;;;;;;;;;;;16.40;58.40;;;;;;5066795;28;19908;-89
2022/12/20 08:24:42;;;;;;;;;;;16.60;58.00;;;;;;5064332;28;19919;-89
2022/12/20 08:27:08;;;;;;;;;;;16.90;57.30;;;;;;5066237;28;19916;-90
2022/12/20 08:29:33;;;;;;;;;;;17.20;56.60;;;;;;5064144;28;19908;-89
2022/12/20 08:31:59;;;;;;;;;;;17.60;55.70;;;;;;5064808;28;19912;-90
2022/12/20 08:34:25;;;;;;;;;;;18.00;54.70;;;;;;5065149;28;20175;-89
2022/12/20 08:36:51;;;;;;;;;;;18.20;54.40;;;;;;5066358;28;19969;-89
2022/12/20 08:39:16;;;;;;;;;;;18.40;54.00;;;;;;5065772;28;20008;-89
2022/12/20 08:41:42;;;;;;;;;;;18.40;53.60;;;;;;5065202;28;20010;-89
2022/12/20 08:44:09;;;;;;;;;;;18.50;53.50;;;;;;5067966;28;19909;-89
2022/12/20 08:46:35;;;;;;;;;;;18.50;53.50;;;;;;5068543;28;19915;-90
2022/12/20 08:49:02;;;;;;;;;;;18.40;53.50;;;;;;5069289;28;19909;-89
2022/12/20 08:51:28;;;;;;;;;;;18.40;53.50;;;;;;5067730;28;20003;-90
2022/12/20 08:53:53;;;;;;;;;;;18.40;53.90;;;;;;5067003;28;19996;-89
2022/12/20 08:56:19;;;;;;;;;;;18.30;53.80;;;;;;5066764;28;20139;-89
2022/12/20 08:58:45;;;;;;;;;;;18.20;54.00;;;;;;5066686;28;20162;-90
2022/12/20 09:01:12;;;;;;;;;;;18.10;54.30;;;;;;5064556;28;19909;-89
2022/12/20 09:03:39;;;;;;;;;;;17.90;54.50;;;;;;5065857;28;20007;-89
2022/12/20 09:06:05;;;;;;;;;;;17.80;54.70;;;;;;5065435;28;19909;-89
2022/12/20 09:08:32;;;;;;;;;;;17.70;55.10;;;;;;5064529;28;19993;-89
2022/12/20 09:11:08;;;;;;;;;;;17.60;55.40;;;;;;5068449;28;19955;-90
2022/12/20 09:13:34;;;;;;;;;;;17.50;55.70;;;;;;5070013;28;19920;-89
2022/12/20 09:16:04;;;;;;;;;;;17.30;55.90;;;;;;5072059;28;19908;-89
2022/12/20 09:18:29;;;;;;;;;;;17.20;56.20;;;;;;5065584;28;19923;-89
2022/12/20 09:20:58;;;;;;;;;;;17.10;56.60;;;;;;5065438;28;19909;-89
2022/12/20 09:23:23;;;;;;;;;;;17.00;56.80;;;;;;5064761;28;19924;-89
2022/12/20 09:25:49;;;;;;;;;;;17.00;57.50;;;;;;5065438;28;19916;-89
2022/12/20 09:28:14;;;;;;;;;;;16.80;57.60;;;;;;5065137;28;20031;-89
2022/12/20 09:30:40;;;;;;;;;;;16.80;57.80;;;;;;5065177;28;20301;-89
2022/12/20 09:33:07;;;;;;;;;;;16.70;58.00;;;;;;5065916;28;20092;-89
2022/12/20 09:35:33;;;;;;;;;;;16.60;58.30;;;;;;5065137;28;19908;-89
2022/12/20 09:37:59;;;;;;;;;;;16.60;58.60;;;;;;5065998;28;20006;-89
2022/12/20 09:40:27;;;;;;;;;;;16.60;58.70;;;;;;5065707;28;20058;-89
2022/12/20 09:42:53;;;;;;;;;;;16.60;58.80;;;;;;5065500;28;20077;-89
2022/12/20 09:45:27;;;;;;;;;;;16.60;58.80;;;;;;5066263;28;20435;-89
2022/12/20 09:47:52;;;;;;;;;;;16.60;58.80;;;;;;5065366;28;19977;-89
2022/12/20 09:50:19;;;;;;;;;;;16.70;58.90;;;;;;5067633;28;19970;-89
2022/12/20 09:53:00;;;;;;;;;;;16.90;58.40;;;;;;5068652;28;20148;-89
2022/12/20 09:55:52;;;;;;;;;;;17.00;58.10;;;;;;5067753;28;19908;-89
2022/12/20 09:58:25;;;;;;;;;;;17.20;57.80;;;;;;5067933;28;20020;-89
2022/12/20 10:00:51;;;;;;;;;;;17.30;57.50;;;;;;5065614;28;20357;-89
2022/12/20 10:03:26;;;;;;;;;;;17.50;57.00;;;;;;5068243;28;20011;-89
2022/12/20 10:05:57;;;;;;;;;;;17.60;56.70;;;;;;5070087;28;20163;-89
2022/12/20 10:08:23;;;;;;;;;;;17.80;56.40;;;;;;5069591;28;19959;-88
2022/12/20 10:11:07;;;;;;;;;;;17.90;56.00;;;;;;5070532;28;19977;-89
2022/12/20 10:14:05;;;;;;;;;;;18.10;55.70;;;;;;5071330;28;20147;-89
2022/12/20 10:16:32;;;;;;;;;;;18.10;55.50;;;;;;5071207;28;20336;-88
2022/12/20 10:19:07;;;;;;;;;;;18.20;55.60;;;;;;5069042;28;19939;-89
2022/12/20 10:22:05;;;;;;;;;;;18.20;55.40;;;;;;5068589;28;20254;-89
2022/12/20 10:24:31;;;;;;;;;;;18.30;55.30;;;;;;5056035;28;19913;-88
2022/12/20 10:27:01;;;;;;;;;;;18.30;55.30;;;;;;5070522;28;20244;-89
2022/12/20 10:29:28;;;;;;;;;;;18.20;55.50;;;;;;5069873;28;20003;-89
2022/12/20 10:31:58;;;;;;;;;;;18.20;55.50;;;;;;5069299;28;19915;-89
2022/12/20 10:34:24;;;;;;;;;;;18.10;55.90;;;;;;5070337;28;19939;-89
2022/12/20 10:37:10;;;;;;;;;;;18.10;55.80;;;;;;5069712;28;19908;-89
2022/12/20 10:39:40;;;;;;;;;;;18.00;56.10;;;;;;5068787;28;20308;-89
2022/12/20 10:42:20;;;;;;;;;;;17.90;56.40;;;;;;5066361;28;20191;-89
2022/12/20 10:44:45;;;;;;;;;;;17.80;56.60;;;;;;5066137;28;19918;-89
2022/12/20 10:47:23;;;;;;;;;;;17.80;56.80;;;;;;5066906;28;19908;-89
2022/12/20 10:49:49;;;;;;;;;;;17.70;56.70;;;;;;5066512;28;19908;-89
2022/12/20 10:52:16;;;;;;;;;;;17.70;57.10;;;;;;5067568;28;20158;-89
2022/12/20 10:54:43;;;;;;;;;;;17.70;57.10;;;;;;5069315;28;20206;-90
2022/12/20 10:57:16;;;;;;;;;;;17.60;57.00;;;;;;5070122;28;20333;-89
2022/12/20 11:00:16;;;;;;;;;;;17.60;57.10;;;;;;5073585;28;20292;-89
2022/12/20 11:03:00;;;;;;;;;;;17.60;57.10;;;;;;5068947;28;19919;-89
2022/12/20 11:05:26;;;;;;;;;;;17.50;57.20;;;;;;5067731;28;19962;-89
2022/12/20 11:07:56;;;;;;;;;;;17.40;57.30;;;;;;5067393;28;19980;-89
2022/12/20 11:10:23;;;;;;;;;;;17.40;57.50;;;;;;5068403;28;20071;-88
2022/12/20 11:12:52;;;;;;;;;;;17.40;57.50;;;;;;5068194;28;20156;-89
2022/12/20 11:15:19;;;;;;;;;;;17.30;57.80;;;;;;5066745;28;20016;-89
2022/12/20 11:17:48;;;;;;;;;;;17.30;57.80;;;;;;5068622;28;19923;-89
2022/12/20 11:20:32;;;;;;;;;;;17.30;57.90;;;;;;5068052;28;19946;-89
2022/12/20 11:23:06;;;;;;;;;;;17.30;57.90;;;;;;5067423;28;19909;-89
2022/12/20 11:25:47;;;;;;;;;;;17.30;57.90;;;;;;5065928;28;19998;-89
2022/12/20 11:28:31;;;;;;;;;;;17.30;57.80;;;;;;5069693;28;19919;-89
2022/12/20 11:31:06;;;;;;;;;;;17.30;57.90;;;;;;5065644;28;20256;-89
2022/12/20 11:33:31;;;;;;;;;;;17.30;57.90;;;;;;5062886;28;20115;-89
2022/12/20 11:36:03;;;;;;;;;;;17.30;57.90;;;;;;5061722;28;19989;-89
2022/12/20 11:38:47;;;;;;;;;;;17.20;57.90;;;;;;5064118;28;19999;-88
2022/12/20 11:41:29;;;;;;;;;;;17.20;58.30;;;;;;5062170;28;20250;-89
2022/12/20 11:44:10;;;;;;;;;;;17.20;58.10;;;;;;5062402;28;20168;-89
2022/12/20 11:46:36;;;;;;;;;;;17.20;58.30;;;;;;5063997;28;20242;-89
2022/12/20 11:49:07;;;;;;;;;;;17.20;58.30;;;;;;5065075;28;19958;-89
2022/12/20 11:51:45;;;;;;;;;;;17.20;58.30;;;;;;5067039;28;20046;-89
2022/12/20 11:54:13;;;;;;;;;;;17.10;58.70;;;;;;5066794;28;19915;-89
2022/12/20 11:56:41;;;;;;;;;;;17.10;58.50;;;;;;5067624;28;19920;-89
2022/12/20 11:59:07;;;;;;;;;;;17.10;58.60;;;;;;5066359;28;20023;-89
2022/12/20 12:01:52;;;;;;;;;;;17.10;58.50;;;;;;5066208;28;20020;-89
2022/12/20 12:04:19;;;;;;;;;;;17.10;58.60;;;;;;5059984;28;19969;-90
2022/12/20 12:07:03;;;;;;;;;;;17.00;58.80;;;;;;5065119;28;19909;-89
2022/12/20 12:09:34;;;;;;;;;;;17.00;58.80;;;;;;5065011;28;20049;-89
2022/12/20 12:12:07;;;;;;;;;;;17.00;58.90;;;;;;5063533;28;20264;-90
2022/12/20 12:14:51;;;;;;;;;;;17.00;59.00;;;;;;5064765;28;19919;-90
2022/12/20 12:17:31;;;;;;;;;;;16.90;59.10;;;;;;5064222;28;19919;-89
2022/12/20 12:20:01;;;;;;;;;;;16.90;59.30;;;;;;5073038;28;20148;-89
2022/12/20 12:22:31;;;;;;;;;;;16.90;59.30;;;;;;5063774;28;20060;-89
2022/12/20 12:24:59;;;;;;;;;;;16.80;59.40;;;;;;5064980;28;20270;-89
2022/12/20 12:27:26;;;;;;;;;;;16.80;59.60;;;;;;5063721;28;20447;-90
2022/12/20 12:29:53;;;;;;;;;;;16.80;59.80;;;;;;5064763;28;20315;-89
2022/12/20 12:32:24;;;;;;;;;;;16.70;59.90;;;;;;5064663;28;19916;-90
2022/12/20 12:34:56;;;;;;;;;;;16.60;60.10;;;;;;5065537;28;19917;-89
2022/12/20 12:37:40;;;;;;;;;;;16.60;60.40;;;;;;5060989;28;20186;-89
2022/12/20 12:40:12;;;;;;;;;;;16.60;60.50;;;;;;5064983;28;19919;-89
2022/12/20 12:42:55;;;;;;;;;;;16.60;60.90;;;;;;5064869;28;19908;-89
2022/12/20 12:45:30;;;;;;;;;;;16.60;61.00;;;;;;5062122;28;19943;-90
2022/12/20 12:48:01;;;;;;;;;;;16.60;61.00;;;;;;5061258;28;20128;-89
2022/12/20 12:50:37;;;;;;;;;;;16.60;60.80;;;;;;5059878;28;19909;-89
2022/12/20 12:53:20;;;;;;;;;;;16.70;60.60;;;;;;5061082;28;19908;-90
2022/12/20 12:55:53;;;;;;;;;;;16.80;60.20;;;;;;5064416;28;19916;-89
2022/12/20 12:58:21;;;;;;;;;;;16.90;59.90;;;;;;5065302;28;20289;-90
2022/12/20 13:00:53;;;;;;;;;;;17.00;59.60;;;;;;5066257;28;19939;-90
2022/12/20 13:03:34;;;;;;;;;;;17.10;59.30;;;;;;5068224;28;19944;-89
2022/12/20 13:06:18;;;;;;;;;;;17.20;59.10;;;;;;5066526;28;20281;-89
2022/12/20 13:08:48;;;;;;;;;;;17.40;58.70;;;;;;5066509;28;19935;-90
2022/12/20 13:11:27;;;;;;;;;;;17.50;58.30;;;;;;5067700;28;19916;-89
2022/12/20 13:14:11;;;;;;;;;;;17.60;58.20;;;;;;5068300;28;19909;-90
2022/12/20 13:16:39;;;;;;;;;;;17.60;58.10;;;;;;5064478;28;20171;-89
2022/12/20 13:19:10;;;;;;;;;;;17.60;58.00;;;;;;5065659;28;20188;-89
2022/12/20 13:21:37;;;;;;;;;;;17.60;57.80;;;;;;5064015;28;20107;-90
2022/12/20 13:24:21;;;;;;;;;;;17.60;57.80;;;;;;5065468;28;20175;-89
2022/12/20 13:26:53;;;;;;;;;;;17.60;58.00;;;;;;5069914;28;20061;-89
2022/12/20 13:29:23;;;;;;;;;;;17.50;58.10;;;;;;5069571;28;19908;-89
2022/12/20 13:31:49;;;;;;;;;;;17.40;58.20;;;;;;5069146;28;19970;-89
2022/12/20 13:34:33;;;;;;;;;;;17.40;58.40;;;;;;5068303;28;20035;-90
2022/12/20 13:36:59;;;;;;;;;;;17.30;58.50;;;;;;5066785;28;19916;-90
2022/12/20 13:39:30;;;;;;;;;;;17.20;58.70;;;;;;5065812;28;19916;-90
2022/12/20 13:42:08;;;;;;;;;;;17.10;59.00;;;;;;5066847;28;20529;-90
2022/12/20 13:44:35;;;;;;;;;;;17.00;59.30;;;;;;5066915;28;20278;-90
2022/12/20 13:47:00;;;;;;;;;;;17.00;59.60;;;;;;5064606;28;19935;-90
2022/12/20 13:49:37;;;;;;;;;;;16.90;59.80;;;;;;5065703;28;19953;-90
2022/12/20 13:52:06;;;;;;;;;;;16.80;60.00;;;;;;5067950;28;20036;-90
2022/12/20 13:54:32;;;;;;;;;;;16.70;60.30;;;;;;5067465;28;20258;-90
2022/12/20 13:56:58;;;;;;;;;;;16.70;60.60;;;;;;5067464;28;19908;-90
2022/12/20 13:59:25;;;;;;;;;;;16.60;60.90;;;;;;5067896;28;19923;-91
2022/12/20 14:01:56;;;;;;;;;;;16.60;61.20;;;;;;5069373;28;19908;-90
2022/12/20 14:04:23;;;;;;;;;;;16.50;61.40;;;;;;5068741;28;19908;-90
2022/12/20 14:06:51;;;;;;;;;;;16.50;61.80;;;;;;5064120;28;19909;-90
2022/12/20 14:09:30;;;;;;;;;;;16.40;61.80;;;;;;5062498;28;19908;-90
2022/12/20 14:12:10;;;;;;;;;;;16.40;62.10;;;;;;5063944;28;19909;-89
2022/12/20 14:14:37;;;;;;;;;;;16.40;62.00;;;;;;5064567;28;20383;-89
2022/12/20 14:17:21;;;;;;;;;;;16.40;62.10;;;;;;5064848;28;19908;-90
2022/12/20 14:19:47;;;;;;;;;;;16.40;62.10;;;;;;5065188;28;19956;-90
2022/12/20 14:22:12;;;;;;;;;;;16.50;62.20;;;;;;5064087;28;19986;-90
2022/12/20 14:24:39;;;;;;;;;;;16.50;62.00;;;;;;5066199;28;19908;-90
2022/12/20 14:27:05;;;;;;;;;;;16.60;61.80;;;;;;5065092;28;20007;-90
2022/12/20 14:29:31;;;;;;;;;;;16.60;61.50;;;;;;5066032;28;20361;-90
2022/12/20 14:31:56;;;;;;;;;;;16.70;61.20;;;;;;5066789;28;20052;-90
2022/12/20 14:34:29;;;;;;;;;;;16.80;60.90;;;;;;5067480;28;19951;-90